Castella, California
Current Conditions -  °F | °C
As of 12:33 PM on Thursday 20 Nov 2014 (Local Time) from KMHS Reporting Station
Light Rain Light Rain  
Wind Chill: 42°   Ceiling: 2900
Heat Index: 42°   Visibility: 10mi
Dew Point: 39°   Wind: 3mph
Humidity: 89%   Direction: 130°SE
Pressure: 30"   Gusts: NA
Location:  41.14°N, 122.32°W
Report Text: KMHS 202033Z AUTO 13003KT 10SM -RA OVC029 06/04 A3000 RMK AO2 P0001 T00560039
Loading
Personal Weather Stations






























Interactive Weather Map New forecast layout! Learn more

10-Day Weather Forecast

Advertisements
Track Severe Weather on mobile